Terminal Aerodrome Forecast
Issued by NWS El Paso, TX

Home | Current Version | Previous Version | Text Only | Print | Product List | Glossary On
Versions: 1 2 3 4 5 6 7 8 9 10 11 12 13
000
FTUS44 KEPZ 210520
TAFELP
TAF
KELP 210520Z 2106/2206 17010KT P6SM FEW100
     FM211700 25012G20KT P6SM FEW100
     FM220200 27009KT P6SM SCT100=

USA.gov is the U.S. government's official web portal to all federal, state and local government web resources and services.